Detailed Flight Report of Nuri Burak ERKAL ;
Number CXD079 
Departure Aerodrome HAAB 
Arrival Aerodrome LMML

Map generated by the Great Circle Mapper - copyright © Karl L. Swartz.

Pilot In Command CXD079 : Nuri Burak Erkal
Aircraft B773 / TC-NZL
Date Of Flight 2020-06-05
Departure Time 04:14 UTC
Arrival Time 09:41 UTC
Block Time 05:27
Distance 2,235 Nm.
Used Fuel 32,767 Lbs.
   
Detailed Flight Log [2020/06/05 04:09:00]
Flight IATA:C001
Pilot Number:079
Company ICAO:CXD
Aircraft Type:B773
Aircraft Registration:TC-NZL
Departing Airport: HAAB
Destination Airport: LMML
Alternate Airport:LICB
Online: VATSIM
Route:AMUDO UT124 ALRAP UM565 NUBAR A727 SML L321 KUNAK M999 KHG L604 BRN A411 LOSUL UP128 LAB UM979 NETAG/N0483F380 UM979 INDOT M622 GZO
Flight Level:FL380
No pause
04:09 Zero fuel Weight: 460920 Lbs, Fuel Weight: 90884 Lbs
04:09 VATSIM:HAAB 041500Z 03006KT 9000 15RA FEW024 BKN025 SCT080 20/09 Q1024
04:09 VATSIM:LMML 041445Z 16016KT 120V180 9999 FEW011 24/19 Q1010 NOSIG
04:15 Parking Brakes off
04:16 Slew ON
04:16 Slew OFF
04:36 VR= 178 Knots
04:36 V2= 182 Knots
04:36 Take-off
04:36 Take off Weight: 549787 Lbs
04:36 Wind: 029º @ 006 Knots Heading: 254º
04:36 POS N08º 58´ 23´´ E038º 47´ 11´´
04:36 N11 99 N12 99
04:36 Flaps:5º at 182 Knots
04:36 Gear Up: 17
6 Knots
04:37 Flaps:1º at 191 Knots
04:37 Flaps:Up at 213 Knots
04:51 Wind:110º@012 Knots Heading: 346º Ground Speed: 498 Knots Altitude 33963 ft
05:06 Wind:115º@017 Knots Heading: 340º Ground Speed: 502 Knots Altitude 36128 ft
05:21 Wind:142º@018 Knots Heading: 333º Ground Speed: 504 Knots Altitude 35984 ft
05:36 Wind:176º@015 Knots Heading: 331º Ground Speed: 502 Knots Altitude 35859 ft
05:51 Wind:217º@015 Knots Heading: 330º Ground Speed: 494 Knots Altitude 35810 ft
06:06 Wind:231º@023 Knots Heading: 329º Ground Speed: 492 Knots Altitude 35833 ft
06:21 Wind:235º@041 Knots Heading: 332º Ground Speed: 496 Knots Altitude 35823 ft
06:36 Wind:240º@060 Knots Heading: 336º Ground Speed: 499 Knots Altitude 35823 ft
06:47 TOC
06:47 Fuel Weight: 52236 Lb
06:51 Wind:240º@068 Knots Heading: 334º Ground Speed: 493 Knots Altitude 37805 ft
07:06 Wind:247º@061 Knots Heading:
319º Ground Speed: 464 Knots Altitude 37910 ft
07:21 Wind:256º@058 Knots Heading: 319º Ground Speed: 454 Knots Altitude 37995 ft
07:36 Wind:265º@052 Knots Heading: 320º Ground Speed: 450 Knots Altitude 38038 ft
07:51 Wind:291º@045 Knots Heading: 296º Ground Speed: 431 Knots Altitude 38077 ft
08:06 Wind:315º@060 Knots Heading: 295º Ground Speed: 418 Knots Altitude 38070 ft
08:21 Wind:321º@065 Knots Heading: 296º Ground Speed: 416 Knots Altitude 38064 ft
08:36 Wind:319º@063 Knots Heading: 294º Ground Speed: 418 Knots Altitude 37939 ft
08:51 Wind:306º@054 Knots Heading: 291º Ground Speed: 422 Knots Altitude 37903 ft
09:05 TOD
09:05 Fuel Weight: 20152 Lb
09:06 Wind:293º@050 Knots Heading: 300º Ground Speed: 424 Knots Altitude 37424 ft
09:21 Wind:280º@030 Knots Heading: 307º Ground Speed: 328 Knots Altitude 12332 ft
09:30 Flaps:1º at 213 Knots
09:30 Flaps:5º at 208 Kno
ts
09:32 Gear Down: 182 Knots
09:33 Flaps:15º at 179 Knots
09:33 Flaps:30º at 182 Knots
09:34 Flaps:35º at 147 Knots
09:34 Flaps:Full at 143 Knots
09:35 TouchDown:Rate -231 ft/min Speed: 142 Knots
09:36 Wind:139º@016 Knots Heading: 135º Ground Speed: 099 Knots Altitude 311 ft
09:36 VATSIM:LMML 042015Z AUTO 14016KT CAVOK 20/19 Q1008
09:36 Land
09:36 Wind:139º@016 Knots
09:36 Heading: 134º
09:36 Flight Duration: 05:00
09:36 Landing Weight: 476893 Lbs
09:36 POS N35º 50´ 53´´ E014º 29´ 20´´
09:42 Parking brakes on
09:42 Block to Block Duration: 05:27
09:42 Final Fuel: 15515 Lbls
09:42 Spent Fuel: 75368 Lbls
09:42 Flight Length: 2235 NM
09:42 TOD Land Length: 157 NM

Text Link of Flight Log http://www.candanair.net/acars/logs/CXD07920200605040900.txt
   

[ Back ]